createdAt,value
2018-08-19T00:03:43.215Z,73.70
2018-08-19T00:08:46.565Z,74.00
2018-08-19T00:13:50.111Z,74.40
2018-08-19T00:24:07.419Z,74.20
2018-08-19T00:29:11.131Z,74.40
2018-08-19T00:34:17.786Z,74.00
2018-08-19T00:39:21.575Z,74.20
2018-08-19T00:44:25.965Z,74.20
2018-08-19T00:49:31.024Z,74.30
2018-08-19T00:54:35.297Z,74.20
2018-08-19T00:59:38.691Z,74.80
2018-08-19T01:04:42.388Z,75.00
2018-08-19T01:09:46.061Z,75.10
2018-08-19T01:14:49.914Z,75.30
2018-08-19T01:19:54.544Z,75.20
2018-08-19T01:24:59.823Z,75.60
2018-08-19T01:30:05.973Z,75.40
2018-08-19T01:35:09.919Z,75.80
2018-08-19T01:40:17.733Z,75.30
2018-08-19T01:45:21.818Z,75.70
2018-08-19T01:50:25.859Z,75.70
2018-08-19T01:55:31.697Z,75.70
2018-08-19T02:00:35.559Z,75.60
2018-08-19T02:05:39.540Z,75.90
2018-08-19T02:10:43.184Z,76.60
2018-08-19T02:15:47.128Z,76.60
2018-08-19T02:20:51.236Z,76.20
2018-08-19T02:25:56.584Z,76.20
2018-08-19T02:31:02.054Z,76.50
2018-08-19T02:36:06.549Z,76.50
2018-08-19T02:41:11.085Z,76.50
2018-08-19T02:46:14.975Z,76.40
2018-08-19T02:51:19.621Z,76.50
2018-08-19T02:56:23.654Z,77.00
2018-08-19T03:01:29.572Z,77.20
2018-08-19T03:06:34.214Z,77.30
2018-08-19T03:11:38.201Z,78.00
2018-08-19T03:16:43.075Z,77.90
2018-08-19T03:21:48.799Z,78.20
2018-08-19T03:26:52.781Z,78.70
2018-08-19T03:32:00.494Z,78.50
2018-08-19T03:37:05.020Z,78.50
2018-08-19T03:42:08.802Z,78.50
2018-08-19T03:47:19.663Z,78.60
2018-08-19T03:52:23.361Z,78.70
2018-08-19T03:57:28.280Z,78.70
2018-08-19T04:02:32.117Z,79.00
2018-08-19T04:07:35.741Z,79.00
2018-08-19T04:12:39.349Z,79.30
2018-08-19T04:17:43.161Z,79.00
2018-08-19T04:22:46.852Z,79.00
2018-08-19T04:27:50.916Z,79.00
2018-08-19T04:32:54.515Z,79.50
2018-08-19T04:37:59.261Z,79.70
2018-08-19T04:43:04.413Z,79.70
2018-08-19T04:48:08.418Z,80.00
2018-08-19T04:53:12.134Z,80.40
2018-08-19T04:58:16.249Z,80.20
2018-08-19T05:03:19.883Z,80.30
2018-08-19T05:08:23.623Z,80.50
2018-08-19T05:13:30.995Z,80.50
2018-08-19T05:18:35.080Z,80.50
2018-08-19T05:23:38.704Z,80.50
2018-08-19T05:28:45.491Z,80.60
2018-08-19T05:33:49.095Z,80.60
2018-08-19T05:38:52.868Z,80.70
2018-08-19T05:43:57.344Z,81.00
2018-08-19T05:49:05.619Z,81.10
2018-08-19T05:54:09.595Z,81.20
2018-08-19T05:59:13.220Z,80.80
2018-08-19T06:04:16.974Z,81.80
2018-08-19T06:09:20.460Z,81.10
2018-08-19T06:14:24.080Z,80.90
2018-08-19T06:19:28.074Z,81.10
2018-08-19T06:24:32.043Z,80.40
2018-08-19T06:29:45.917Z,80.10
2018-08-19T06:34:50.458Z,80.80
2018-08-19T06:39:54.290Z,80.20
2018-08-19T06:44:58.164Z,80.60
2018-08-19T06:50:03.640Z,80.80
2018-08-19T06:55:07.308Z,80.50
2018-08-19T07:00:30.803Z,80.70
2018-08-19T07:05:35.347Z,80.80
2018-08-19T07:10:40.390Z,82.30
2018-08-19T07:15:45.193Z,81.60
2018-08-19T07:20:48.998Z,82.10
2018-08-19T07:25:54.193Z,82.50
2018-08-19T07:30:58.536Z,82.80
2018-08-19T07:36:02.801Z,82.90
2018-08-19T07:41:06.922Z,83.20
2018-08-19T07:46:11.219Z,82.80
2018-08-19T07:51:15.296Z,82.40
2018-08-19T07:56:18.977Z,82.70
2018-08-19T08:01:23.801Z,83.20
2018-08-19T08:06:32.031Z,83.00
2018-08-19T08:11:36.096Z,82.50
2018-08-19T08:16:45.021Z,82.70
2018-08-19T08:21:49.155Z,82.50
2018-08-19T08:26:56.272Z,82.60
2018-08-19T08:32:00.464Z,82.30
2018-08-19T08:37:05.802Z,82.40
2018-08-19T08:42:09.601Z,82.60
2018-08-19T08:47:13.449Z,82.60
2018-08-19T08:52:23.649Z,82.50
2018-08-19T08:57:29.399Z,82.60
2018-08-19T09:02:33.433Z,81.80
2018-08-19T09:07:37.322Z,81.40
2018-08-19T09:12:51.817Z,80.30
2018-08-19T09:17:59.076Z,80.20
2018-08-19T09:23:03.781Z,79.80
2018-08-19T09:28:07.961Z,79.60
2018-08-19T09:33:12.711Z,80.20
2018-08-19T09:38:18.907Z,79.90
2018-08-19T09:43:23.376Z,80.30
2018-08-19T09:48:30.543Z,80.60
2018-08-19T09:53:35.686Z,80.90
2018-08-19T09:58:39.881Z,80.30
2018-08-19T10:03:43.938Z,80.40
2018-08-19T10:08:47.608Z,79.50
2018-08-19T10:13:55.942Z,79.10
2018-08-19T10:19:00.154Z,78.80
2018-08-19T10:24:15.208Z,78.10
2018-08-19T10:29:19.169Z,76.90
2018-08-19T10:34:33.462Z,76.80
2018-08-19T10:39:37.160Z,76.80
2018-08-19T10:44:41.337Z,76.60
2018-08-19T10:49:54.719Z,76.60
2018-08-19T10:54:59.988Z,76.30
2018-08-19T11:00:04.690Z,76.40
2018-08-19T11:05:08.802Z,75.90
2018-08-19T11:10:24.619Z,75.20
2018-08-19T11:15:42.351Z,73.90
2018-08-19T11:20:49.002Z,74.00
2018-08-19T11:25:54.613Z,73.30
2018-08-19T11:30:58.895Z,73.10
2018-08-19T11:36:04.879Z,73.00
2018-08-19T11:41:09.519Z,72.60
2018-08-19T11:46:13.674Z,72.40
2018-08-19T11:51:17.734Z,72.00
2018-08-19T11:56:22.066Z,71.60
2018-08-19T12:01:26.759Z,71.70
2018-08-19T12:06:32.494Z,72.30
2018-08-19T12:11:40.370Z,71.80
2018-08-19T12:16:50.211Z,71.10
2018-08-19T12:22:09.279Z,71.50
2018-08-19T12:27:16.142Z,71.20
2018-08-19T12:32:24.630Z,70.50
2018-08-19T12:37:29.389Z,69.90
2018-08-19T12:42:38.560Z,70.30
2018-08-19T12:47:45.566Z,69.70
2018-08-19T12:52:50.544Z,69.40
2018-08-19T12:58:01.094Z,69.30
2018-08-19T13:03:05.770Z,69.20
2018-08-19T13:08:10.291Z,69.20
2018-08-19T13:13:20.982Z,68.90
2018-08-19T13:18:31.450Z,69.00
2018-08-19T13:23:37.130Z,69.50
2018-08-19T13:28:45.274Z,68.90
2018-08-19T13:33:49.964Z,69.20
2018-08-19T13:38:54.538Z,68.70
2018-08-19T13:43:59.754Z,68.80
2018-08-19T13:49:04.130Z,68.60
2018-08-19T13:54:08.198Z,68.40
2018-08-19T13:59:12.455Z,68.50
2018-08-19T14:04:16.606Z,68.30
2018-08-19T14:09:21.047Z,68.10
2018-08-19T14:14:25.114Z,68.50
2018-08-19T14:19:29.487Z,68.60
2018-08-19T14:24:33.891Z,68.80
2018-08-19T14:29:38.118Z,68.80
2018-08-19T14:34:41.926Z,68.90
2018-08-19T14:39:48.421Z,69.30
2018-08-19T14:44:52.585Z,69.30
2018-08-19T14:49:58.351Z,69.10
2018-08-19T14:55:02.934Z,69.30
2018-08-19T15:00:08.743Z,69.80
2018-08-19T15:05:18.680Z,70.00
2018-08-19T15:10:27.139Z,70.00
2018-08-19T15:15:32.388Z,70.30
2018-08-19T15:20:38.193Z,70.30
2018-08-19T15:25:45.428Z,70.50
2018-08-19T15:30:48.858Z,70.80
2018-08-19T15:35:52.952Z,72.30
2018-08-19T15:41:03.858Z,74.10
2018-08-19T15:46:08.218Z,75.10
2018-08-19T15:51:17.269Z,75.00
2018-08-19T15:56:21.399Z,74.80
2018-08-19T16:01:35.420Z,74.70
2018-08-19T16:06:38.948Z,74.90
2018-08-19T16:11:42.859Z,75.10
2018-08-19T16:16:47.377Z,75.00
2018-08-19T16:21:53.140Z,75.20
2018-08-19T16:26:56.952Z,75.30
2018-08-19T16:32:01.753Z,75.20
2018-08-19T16:37:05.986Z,75.50
2018-08-19T16:42:09.467Z,76.10
2018-08-19T16:47:13.044Z,76.10
2018-08-19T16:52:17.201Z,76.10
2018-08-19T16:57:21.136Z,75.90
2018-08-19T17:02:26.321Z,75.80
2018-08-19T17:07:30.753Z,75.90
2018-08-19T17:12:35.216Z,75.80
2018-08-19T17:17:39.343Z,75.60
2018-08-19T17:22:42.899Z,75.50
2018-08-19T17:27:47.578Z,75.60
2018-08-19T17:32:55.834Z,75.70
2018-08-19T17:37:59.864Z,75.70
2018-08-19T17:43:04.447Z,75.70
2018-08-19T17:48:08.332Z,75.20
2018-08-19T17:53:12.178Z,75.20
2018-08-19T17:58:16.414Z,75.20
2018-08-19T18:03:20.300Z,76.30
2018-08-19T18:08:23.664Z,78.00
2018-08-19T18:13:30.810Z,78.80
2018-08-19T18:18:34.537Z,79.60
2018-08-19T18:23:38.249Z,80.40
2018-08-19T18:28:44.000Z,80.80
2018-08-19T18:33:53.022Z,81.10
2018-08-19T18:38:57.539Z,81.40
2018-08-19T18:44:04.091Z,81.90
2018-08-19T18:49:15.601Z,81.60
2018-08-19T18:54:30.094Z,82.00
2018-08-19T18:59:33.903Z,82.10
2018-08-19T19:04:39.347Z,82.50
2018-08-19T19:09:49.228Z,82.80
2018-08-19T19:14:52.762Z,83.00
2018-08-19T19:19:56.295Z,83.10
